createdAt,value
2022-10-05T00:00:06.848Z,100
2022-10-05T00:15:18.444Z,100
2022-10-05T00:30:34.415Z,100
2022-10-05T00:45:51.418Z,100
2022-10-05T01:01:08.366Z,100
2022-10-05T01:16:24.383Z,100
2022-10-05T01:31:41.368Z,100
2022-10-05T01:46:58.261Z,100
2022-10-05T02:02:16.357Z,100
2022-10-05T02:17:33.205Z,100
2022-10-05T02:32:49.181Z,100
2022-10-05T02:48:05.157Z,100
2022-10-05T03:03:23.136Z,100
2022-10-05T03:18:40.111Z,100
2022-10-05T03:33:57.096Z,100
2022-10-05T03:49:13.121Z,100
2022-10-05T04:04:32.032Z,100
2022-10-05T04:19:48.049Z,100
2022-10-05T04:35:03.997Z,100
2022-10-05T04:50:20.004Z,100
2022-10-05T05:05:53.075Z,100
2022-10-05T05:20:54.941Z,100
2022-10-05T05:36:10.936Z,100
2022-10-05T05:51:26.896Z,100
2022-10-05T06:06:44.053Z,100
2022-10-05T06:21:59.849Z,100
2022-10-05T06:37:16.825Z,100
2022-10-05T06:52:33.878Z,100
2022-10-05T07:07:51.749Z,100
2022-10-05T07:23:07.751Z,100
2022-10-05T07:38:23.708Z,100
2022-10-05T07:53:39.687Z,99
2022-10-05T08:08:56.633Z,92.5
2022-10-05T08:24:13.593Z,88
2022-10-05T08:39:30.593Z,83.5
2022-10-05T08:54:46.559Z,76
2022-10-05T09:10:03.511Z,73
2022-10-05T09:25:19.483Z,71
2022-10-05T09:40:35.485Z,69.5
2022-10-05T09:55:52.409Z,68
2022-10-05T10:11:10.394Z,67
2022-10-05T10:26:27.354Z,69.5
2022-10-05T10:41:43.344Z,64
2022-10-05T10:56:59.282Z,63.5
2022-10-05T11:12:17.288Z,61
2022-10-05T11:27:33.227Z,63.5
2022-10-05T11:42:50.226Z,62.5
2022-10-05T11:58:07.152Z,61
2022-10-05T12:13:24.160Z,62
2022-10-05T12:28:40.085Z,61
2022-10-05T12:43:56.086Z,61
2022-10-05T12:59:12.050Z,60.5
2022-10-05T13:14:28.999Z,59
2022-10-05T13:29:45.002Z,58
2022-10-05T13:45:01.931Z,57
2022-10-05T14:00:22.752Z,54
2022-10-05T14:15:41.257Z,54.5
2022-10-05T14:30:56.792Z,57
2022-10-05T14:46:07.829Z,57
2022-10-05T15:01:23.904Z,58
2022-10-05T15:16:40.766Z,58
2022-10-05T15:31:57.699Z,59.5
2022-10-05T15:47:14.669Z,61
2022-10-05T16:02:30.675Z,64.5
2022-10-05T16:17:47.605Z,68.5
2022-10-05T16:33:03.582Z,72
2022-10-05T16:48:19.551Z,75
2022-10-05T17:03:35.511Z,77.5
2022-10-05T17:18:52.486Z,80.5
2022-10-05T17:34:09.484Z,85.5
2022-10-05T17:49:26.456Z,88.5
2022-10-05T18:04:42.421Z,91
2022-10-05T18:19:59.357Z,93
2022-10-05T18:20:44.229Z,93
2022-10-05T18:35:16.334Z,95.5
2022-10-05T18:50:33.344Z,98.5
2022-10-05T19:05:50.277Z,100
2022-10-05T19:21:07.271Z,100
2022-10-05T19:36:23.246Z,100
2022-10-05T19:51:39.219Z,100
2022-10-05T20:06:55.178Z,100
2022-10-05T20:22:12.159Z,100
2022-10-05T20:37:29.127Z,100
2022-10-05T20:52:46.099Z,100
2022-10-05T21:08:03.064Z,100
2022-10-05T21:23:20.041Z,100
2022-10-05T21:38:36.012Z,100
2022-10-05T21:53:51.991Z,100
2022-10-05T22:09:07.961Z,100
2022-10-05T22:24:24.911Z,100
2022-10-05T22:39:41.905Z,100
2022-10-05T22:54:58.849Z,100
2022-10-05T23:10:14.846Z,100
2022-10-05T23:25:31.785Z,100
2022-10-05T23:40:47.800Z,100
2022-10-05T23:56:03.744Z,100
